Time;durP1;ratioP1;P1;durP2;ratioP2;P2;SDS_P1;SDS_P2;PMS_P1;PMS_P2;Temp;Humidity;BMP_temperature;BMP_pressure;BME280_temperature;BME280_humidity;BME280_pressure;Samples;Min_cycle;Max_cycle;Signal;HPM_P1;HPM_P2
2023/04/20 00:00:16;;;;;;;;;49.60;40.00;;;;;13.93;60.26;98896.81;6028785;28;96309;-62
2023/04/20 00:03:22;;;;;;;;;55.00;42.40;;;;;13.92;60.29;98898.72;6028332;28;98457;-62
2023/04/20 00:06:28;;;;;;;;;52.80;41.80;;;;;13.89;60.46;98894.59;6012758;29;96708;-62
2023/04/20 00:09:32;;;;;;;;;52.33;41.33;;;;;13.92;60.13;98896.00;6012082;29;96652;-63
2023/04/20 00:12:35;;;;;;;;;49.50;39.00;;;;;13.89;60.21;98896.47;6011802;28;96652;-62
2023/04/20 00:15:38;;;;;;;;;51.20;41.00;;;;;13.84;60.37;98897.19;6028556;29;96267;-63
2023/04/20 00:18:45;;;;;;;;;52.00;40.00;;;;;13.80;60.36;98889.78;6028566;28;96495;-63
2023/04/20 00:21:49;;;;;;;;;51.60;41.40;;;;;13.77;60.50;98893.84;6027922;28;98502;-62
2023/04/20 00:24:52;;;;;;;;;50.40;41.00;;;;;13.73;60.85;98884.50;6029005;28;96370;-62
2023/04/20 00:27:55;;;;;;;;;53.00;42.00;;;;;13.72;60.88;98888.31;6028381;28;96258;-63
2023/04/20 00:30:58;;;;;;;;;49.00;40.40;;;;;13.73;60.47;98884.50;6010487;28;98424;-62
2023/04/20 00:34:03;;;;;;;;;52.00;41.00;;;;;13.74;60.78;98888.88;6026972;28;96256;-62
2023/04/20 00:37:08;;;;;;;;;50.40;41.00;;;;;13.78;60.92;98881.09;6027451;29;96361;-62
2023/04/20 00:40:12;;;;;;;;;50.40;41.00;;;;;13.80;60.63;98885.22;6027672;28;96315;-62
2023/04/20 00:43:15;;;;;;;;;52.00;41.00;;;;;13.77;61.13;98883.00;6028401;28;96286;-63
2023/04/20 00:46:19;;;;;;;;;53.00;43.00;;;;;13.76;61.01;98885.94;6027376;28;96363;-62
2023/04/20 00:49:24;;;;;;;;;53.40;40.40;;;;;13.72;61.00;98888.31;6027500;28;96289;-63
2023/04/20 00:52:29;;;;;;;;;54.00;42.20;;;;;13.71;61.08;98886.66;6027329;28;96284;-62
2023/04/20 00:55:34;;;;;;;;;51.60;40.00;;;;;13.61;61.10;98872.91;6027154;28;96304;-62
2023/04/20 00:58:38;;;;;;;;;50.00;39.20;;;;;13.69;61.08;98888.78;6010262;28;98354;-63
2023/04/20 01:01:41;;;;;;;;;47.50;38.00;;;;;13.70;61.07;98886.91;6011516;28;96669;-63
2023/04/20 01:04:47;;;;;;;;;51.60;40.40;;;;;13.66;61.20;98897.41;6011140;28;96329;-63
2023/04/20 01:07:50;;;;;;;;;47.00;39.00;;;;;13.69;61.28;98887.94;6027884;28;96303;-63
2023/04/20 01:10:54;;;;;;;;;51.60;40.60;;;;;13.71;61.29;98885.84;6027449;29;96317;-63
2023/04/20 01:13:58;;;;;;;;;50.00;41.00;;;;;13.69;61.25;98894.19;6027282;28;96276;-62
2023/04/20 01:17:03;;;;;;;;;49.60;40.60;;;;;13.65;61.45;98893.03;6026894;28;96940;-63
2023/04/20 01:20:11;;;;;;;;;51.60;41.00;;;;;13.62;61.63;98890.00;6011949;28;96326;-62
2023/04/20 01:23:16;;;;;;;;;51.80;41.60;;;;;13.62;61.67;98892.72;6011121;29;96974;-62
2023/04/20 01:26:22;;;;;;;;;48.00;39.00;;;;;13.64;61.64;98885.13;6027115;28;96338;-63
2023/04/20 01:29:26;;;;;;;;;55.80;42.60;;;;;13.64;61.55;98893.28;6026594;28;96396;-63
2023/04/20 01:32:29;;;;;;;;;52.00;41.00;;;;;13.66;61.72;98889.28;6027190;28;96235;-63
2023/04/20 01:35:34;;;;;;;;;53.00;41.40;;;;;13.70;61.80;98892.31;6011407;29;97660;-63
2023/04/20 01:38:39;;;;;;;;;51.00;41.00;;;;;13.73;61.49;98891.84;6026644;28;97004;-62
2023/04/20 01:41:42;;;;;;;;;52.25;39.00;;;;;13.70;61.77;98889.59;6027422;28;96316;-62
2023/04/20 01:44:45;;;;;;;;;54.00;41.80;;;;;13.68;61.74;98883.63;6026762;28;96911;-63
2023/04/20 01:47:50;;;;;;;;;50.25;40.00;;;;;13.66;61.83;98891.16;6010751;28;96534;-63
2023/04/20 01:50:54;;;;;;;;;50.60;40.00;;;;;13.66;62.04;98885.75;6026002;29;96247;-62
2023/04/20 01:53:58;;;;;;;;;53.00;40.00;;;;;13.69;62.03;98883.34;6026210;28;96361;-63
2023/04/20 01:57:03;;;;;;;;;52.80;41.00;;;;;13.71;61.80;98885.84;5995213;28;96943;-62
2023/04/20 02:00:08;;;;;;;;;49.75;39.75;;;;;13.77;61.85;98879.47;6010588;28;98514;-62
2023/04/20 02:03:19;;;;;;;;;49.25;40.00;;;;;13.83;61.79;98878.47;6027078;29;96551;-62
2023/04/20 02:06:22;;;;;;;;;53.00;41.00;;;;;13.83;61.72;98873.03;6026647;28;96674;-63
2023/04/20 02:09:27;;;;;;;;;49.00;38.20;;;;;13.85;61.33;98874.47;6010323;29;98575;-62
2023/04/20 02:12:30;;;;;;;;;51.00;40.50;;;;;13.89;61.47;98878.31;6029190;28;96290;-62
2023/04/20 02:15:34;;;;;;;;;51.40;41.00;;;;;13.91;61.35;98885.41;6029594;28;97375;-63
2023/04/20 02:18:37;;;;;;;;;48.20;38.00;;;;;13.92;61.10;98879.75;6030451;29;96172;-63
2023/04/20 02:21:41;;;;;;;;;50.00;39.40;;;;;13.88;61.17;98876.66;6024231;29;98523;-62
2023/04/20 02:24:45;;;;;;;;;46.00;38.00;;;;;13.89;61.28;98872.91;6028120;28;96279;-62
2023/04/20 02:27:49;;;;;;;;;47.00;38.25;;;;;13.96;61.08;98877.34;6028428;28;96287;-62
2023/04/20 02:30:53;;;;;;;;;46.60;37.80;;;;;13.97;60.99;98877.13;5991630;29;96691;-62
2023/04/20 02:33:56;;;;;;;;;46.20;37.80;;;;;13.97;60.93;98885.25;6014267;28;96284;-62
2023/04/20 02:37:02;;;;;;;;;53.00;42.20;;;;;14.00;60.89;98883.94;6014450;29;96915;-63
2023/04/20 02:40:09;;;;;;;;;47.00;39.00;;;;;13.99;60.95;98880.41;6013481;28;96322;-62
2023/04/20 02:43:12;;;;;;;;;51.50;41.00;;;;;13.99;61.05;98877.69;6030332;28;96349;-62
2023/04/20 02:46:17;;;;;;;;;51.00;39.50;;;;;14.02;60.95;98881.81;6029722;28;96261;-62
2023/04/20 02:49:21;;;;;;;;;50.00;38.00;;;;;13.98;60.94;98880.63;6013393;28;96777;-63
2023/04/20 02:52:24;;;;;;;;;50.00;41.00;;;;;14.02;60.95;98888.06;6028651;28;96500;-63
2023/04/20 02:55:31;;;;;;;;;49.00;39.25;;;;;14.02;60.40;98893.47;6028800;28;96270;-63
2023/04/20 02:58:39;;;;;;;;;49.00;39.00;;;;;14.03;60.75;98886.97;6029431;28;96283;-62
2023/04/20 03:01:50;;;;;;;;;46.60;37.00;;;;;14.02;60.81;98892.66;6012733;28;97662;-62
2023/04/20 03:04:56;;;;;;;;;47.00;37.50;;;;;14.03;60.81;98894.28;6029004;28;96282;-61
2023/04/20 03:08:00;;;;;;;;;45.20;35.20;;;;;14.02;60.79;98889.94;6029616;28;96225;-62
2023/04/20 03:11:05;;;;;;;;;44.20;35.20;;;;;14.02;60.76;98885.34;6028449;28;96615;-62
2023/04/20 03:14:08;;;;;;;;;42.40;35.20;;;;;14.03;60.67;98886.13;6029928;28;96294;-62
2023/04/20 03:17:12;;;;;;;;;45.60;35.40;;;;;14.02;60.48;98893.47;6029837;28;96410;-63
2023/04/20 03:20:16;;;;;;;;;41.80;34.40;;;;;13.99;60.24;98882.28;6029463;28;96361;-62
2023/04/20 03:23:19;;;;;;;;;40.40;33.00;;;;;13.92;59.98;98885.16;6029149;28;96887;-62
2023/04/20 03:26:24;;;;;;;;;35.40;32.00;;;;;13.89;60.02;98883.75;6035456;28;96671;-62
2023/04/20 03:33:15;;;;;;;;;40.40;32.40;;;;;13.87;59.87;98877.75;5980682;29;96830;-61
2023/04/20 03:36:18;;;;;;;;;37.00;31.00;;;;;13.87;59.98;98883.19;5982846;29;96868;-61
2023/04/20 03:39:21;;;;;;;;;38.20;32.00;;;;;13.89;59.72;98891.88;5983593;29;96353;-61
2023/04/20 03:42:26;;;;;;;;;35.00;30.00;;;;;13.89;59.55;98891.03;5982870;29;96258;-61
2023/04/20 03:45:30;;;;;;;;;38.00;32.00;;;;;13.86;59.62;98888.84;5981486;29;96416;-61
2023/04/20 03:48:33;;;;;;;;;36.50;30.50;;;;;13.87;59.27;98890.50;5975237;29;96409;-62
2023/04/20 03:51:36;;;;;;;;;36.40;32.40;;;;;13.87;59.35;98891.31;5964211;29;96389;-62
2023/04/20 03:54:41;;;;;;;;;37.00;30.60;;;;;13.88;59.25;98894.81;5956689;29;96463;-61
2023/04/20 03:57:48;;;;;;;;;36.00;31.00;;;;;13.90;59.34;98900.84;5976890;29;96606;-61
2023/04/20 04:00:52;;;;;;;;;33.25;28.25;;;;;13.93;59.23;98911.19;5962659;29;96989;-62
2023/04/20 04:03:55;;;;;;;;;35.00;30.60;;;;;13.91;59.20;98904.38;5959450;29;96495;-61
2023/04/20 04:06:59;;;;;;;;;33.75;30.00;;;;;13.93;59.02;98905.75;5964447;29;96339;-62
2023/04/20 04:10:03;;;;;;;;;35.20;29.80;;;;;13.95;59.04;98911.78;5966456;29;96366;-62
2023/04/20 04:13:09;;;;;;;;;31.60;29.40;;;;;13.95;59.26;98909.06;5949656;29;96878;-62
2023/04/20 04:16:12;;;;;;;;;33.00;30.00;;;;;13.99;59.04;98906.69;5941375;29;98419;-62
2023/04/20 04:19:17;;;;;;;;;36.60;31.60;;;;;14.00;59.24;98911.03;5976194;29;97727;-61
2023/04/20 04:22:20;;;;;;;;;34.00;30.00;;;;;14.00;58.98;98909.16;5961240;29;96316;-62
2023/04/20 04:25:44;;;;;;;;;38.40;31.60;;;;;14.05;58.94;98913.84;5971757;29;96334;-62
2023/04/20 04:28:50;;;;;;;;;35.00;30.60;;;;;14.05;59.07;98911.97;5955680;29;96334;-62
2023/04/20 04:31:57;;;;;;;;;37.60;31.80;;;;;13.94;59.14;98896.56;5965370;29;97252;-62
2023/04/20 04:35:01;;;;;;;;;40.00;30.00;;;;;14.08;59.17;98916.06;5964750;29;97347;-61
2023/04/20 04:38:05;;;;;;;;;37.50;32.25;;;;;14.12;59.30;98919.94;5968592;29;96258;-62
2023/04/20 04:41:09;;;;;;;;;39.00;32.40;;;;;14.12;59.32;98909.91;5963466;29;96428;-62
2023/04/20 04:44:15;;;;;;;;;45.00;36.00;;;;;14.07;59.63;98923.41;5964465;29;96825;-62
2023/04/20 04:47:20;;;;;;;;;44.00;35.50;;;;;14.07;59.87;98920.69;5948837;29;96892;-62
2023/04/20 04:50:24;;;;;;;;;43.80;36.00;;;;;14.09;59.78;98945.66;5978646;29;96932;-61
2023/04/20 04:53:27;;;;;;;;;43.00;35.25;;;;;14.11;59.95;98931.84;5977802;29;96359;-61
2023/04/20 04:56:31;;;;;;;;;40.40;34.00;;;;;14.18;59.84;98937.94;5976560;29;96293;-61
2023/04/20 04:59:36;;;;;;;;;46.00;37.00;;;;;14.23;59.86;98949.69;5977451;29;96360;-61
2023/04/20 05:02:39;;;;;;;;;47.00;36.80;;;;;14.32;59.70;98947.41;5956574;29;98880;-61
2023/04/20 05:05:43;;;;;;;;;46.40;35.60;;;;;14.40;59.57;98955.19;5977264;29;96634;-61
2023/04/20 05:08:46;;;;;;;;;46.00;37.25;;;;;14.43;59.34;98951.97;5971086;29;97006;-61
2023/04/20 05:11:50;;;;;;;;;47.80;38.00;;;;;14.41;59.50;98956.03;5979708;29;96921;-61
2023/04/20 05:14:54;;;;;;;;;49.75;40.00;;;;;14.42;59.51;98963.88;5980966;29;97052;-61
2023/04/20 05:17:57;;;;;;;;;46.75;38.00;;;;;14.47;59.49;98960.44;5964566;29;98525;-61
2023/04/20 05:21:01;;;;;;;;;47.50;38.00;;;;;14.55;59.24;98960.06;5965720;29;99029;-62
2023/04/20 05:24:06;;;;;;;;;47.00;36.20;;;;;14.57;58.94;98955.19;5981297;29;96882;-61
2023/04/20 05:27:10;;;;;;;;;49.00;38.00;;;;;14.70;58.63;98958.44;5940941;29;96648;-61
2023/04/20 05:30:15;;;;;;;;;44.00;36.00;;;;;14.78;58.74;98964.50;5972615;29;96328;-59
2023/04/20 05:33:24;;;;;;;;;37.80;33.00;;;;;14.89;58.23;98969.84;5959769;29;98437;-60
2023/04/20 05:36:28;;;;;;;;;47.00;39.00;;;;;14.95;57.75;98963.44;5974382;29;97074;-59
2023/04/20 05:39:32;;;;;;;;;45.40;36.00;;;;;15.01;57.99;98965.13;5974291;29;96707;-59
2023/04/20 05:42:35;;;;;;;;;33.00;29.80;;;;;15.18;57.38;98968.66;5975126;29;96339;-59
2023/04/20 05:45:40;;;;;;;;;45.60;35.00;;;;;15.22;56.98;98965.44;5974054;29;96296;-59
2023/04/20 05:48:43;;;;;;;;;34.25;30.00;;;;;15.27;56.33;98969.06;5974809;29;96500;-59
2023/04/20 05:51:47;;;;;;;;;34.00;30.80;;;;;15.30;55.73;98965.84;5974709;29;96497;-59
2023/04/20 05:54:50;;;;;;;;;33.40;29.60;;;;;15.46;55.25;98969.59;5959094;29;96859;-59
2023/04/20 05:57:53;;;;;;;;;37.00;32.50;;;;;15.57;55.38;98980.38;5975283;29;97051;-59
2023/04/20 06:00:58;;;;;;;;;42.40;33.00;;;;;15.68;55.26;98970.47;5958155;29;99082;-61
2023/04/20 06:04:01;;;;;;;;;41.40;33.00;;;;;15.78;54.73;98967.06;5974438;29;96899;-60
2023/04/20 06:07:05;;;;;;;;;38.20;31.60;;;;;15.87;54.84;98965.53;5972529;29;96499;-59
2023/04/20 06:10:09;;;;;;;;;31.60;27.00;;;;;15.85;53.94;98954.06;5944322;29;99162;-59
2023/04/20 06:13:12;;;;;;;;;32.00;28.40;;;;;15.89;54.03;98936.19;5920177;29;98873;-61
2023/04/20 06:16:17;;;;;;;;;32.00;30.00;;;;;16.10;53.37;98967.16;5967277;29;96350;-60
2023/04/20 06:19:20;;;;;;;;;33.00;27.00;;;;;16.13;53.41;98964.72;5966597;29;96245;-60
2023/04/20 06:22:23;;;;;;;;;33.60;28.40;;;;;16.18;53.00;98967.50;5935627;29;98502;-60
2023/04/20 06:25:27;;;;;;;;;32.40;28.80;;;;;16.32;52.96;98968.72;5968576;29;96356;-59
2023/04/20 06:28:30;;;;;;;;;31.00;27.25;;;;;16.47;52.48;98965.34;5968294;29;96538;-59
2023/04/20 06:31:35;;;;;;;;;29.20;27.20;;;;;16.43;51.83;98950.59;5951693;29;96845;-59
2023/04/20 06:34:38;;;;;;;;;28.00;27.40;;;;;16.59;51.46;98971.47;5967987;29;96163;-60
2023/04/20 06:37:41;;;;;;;;;33.40;29.80;;;;;16.70;51.69;98981.41;5950795;29;96839;-59
2023/04/20 06:40:45;;;;;;;;;31.80;29.40;;;;;16.87;51.55;98970.34;5951770;29;96322;-59
2023/04/20 06:43:48;;;;;;;;;32.00;27.40;;;;;17.05;50.68;98969.97;5965113;29;96387;-60
2023/04/20 06:46:53;;;;;;;;;32.00;29.00;;;;;17.19;50.37;98976.59;5966775;29;98452;-60
2023/04/20 06:49:57;;;;;;;;;31.00;26.00;;;;;17.42;48.87;98977.28;5963738;29;96468;-60
2023/04/20 06:53:02;;;;;;;;;29.50;27.50;;;;;17.70;48.64;98974.16;5966922;29;96351;-60
2023/04/20 06:56:06;;;;;;;;;32.00;30.00;;;;;18.13;48.92;98975.72;5967560;29;96309;-59
2023/04/20 06:59:09;;;;;;;;;30.00;28.00;;;;;18.53;47.12;98973.09;5971407;29;96300;-60
2023/04/20 07:02:14;;;;;;;;;30.00;27.40;;;;;18.75;45.62;98970.13;5971607;29;96941;-60
2023/04/20 07:05:18;;;;;;;;;35.20;29.20;;;;;18.79;45.56;98976.66;5972055;29;96311;-59
2023/04/20 07:08:22;;;;;;;;;29.00;28.00;;;;;18.76;45.85;98977.22;5971148;29;96381;-59
2023/04/20 07:11:25;;;;;;;;;29.40;27.00;;;;;18.86;45.71;98981.88;5971151;29;96821;-59
2023/04/20 07:14:28;;;;;;;;;28.00;26.00;;;;;19.04;45.98;98986.78;5955393;29;96311;-59
2023/04/20 07:17:34;;;;;;;;;28.50;27.00;;;;;19.20;44.72;98988.41;5955141;29;98471;-59
2023/04/20 07:20:37;;;;;;;;;33.00;29.00;;;;;19.31;44.37;98989.19;5954214;29;98435;-59
2023/04/20 07:23:41;;;;;;;;;26.60;25.60;;;;;19.41;43.80;98984.53;5970027;29;96306;-59
2023/04/20 07:26:47;;;;;;;;;26.20;24.80;;;;;19.44;43.08;98985.94;5971431;29;96241;-59
2023/04/20 07:29:50;;;;;;;;;27.00;25.00;;;;;19.63;43.78;98986.97;5969757;29;96296;-60
2023/04/20 07:32:55;;;;;;;;;28.60;26.00;;;;;20.05;42.91;98993.94;5970856;29;97136;-59
2023/04/20 07:35:59;;;;;;;;;29.20;27.00;;;;;20.45;42.56;98988.28;5968375;29;96249;-59
2023/04/20 07:39:02;;;;;;;;;27.50;26.50;;;;;20.76;41.08;98997.09;5967918;29;96261;-60
2023/04/20 07:42:05;;;;;;;;;30.00;26.00;;;;;20.78;40.63;98989.41;5968904;29;96589;-59
2023/04/20 07:45:10;;;;;;;;;25.20;23.40;;;;;20.87;41.07;98995.91;5969574;29;96333;-59
2023/04/20 07:48:15;;;;;;;;;25.00;24.00;;;;;20.83;40.42;99004.97;5970253;29;96552;-60
2023/04/20 07:51:18;;;;;;;;;23.80;22.00;;;;;20.87;39.79;99000.56;5953414;29;96412;-60
2023/04/20 07:54:22;;;;;;;;;25.50;23.00;;;;;20.75;39.76;99000.94;5970898;29;96332;-60
2023/04/20 07:57:25;;;;;;;;;29.75;25.00;;;;;20.65;40.36;99001.00;5970344;29;96296;-60
2023/04/20 08:00:29;;;;;;;;;28.60;25.60;;;;;20.40;40.64;98999.25;5953588;29;96342;-59
2023/04/20 08:03:34;;;;;;;;;24.60;22.00;;;;;20.23;41.05;98994.09;5953351;29;96788;-59
2023/04/20 08:06:38;;;;;;;;;23.00;19.00;;;;;20.19;40.94;98997.69;5953759;29;98441;-60
2023/04/20 08:09:41;;;;;;;;;23.40;21.00;;;;;20.15;39.97;99002.09;5968679;29;96492;-59
2023/04/20 08:12:45;;;;;;;;;21.00;19.00;;;;;20.10;40.45;99010.31;5969918;29;96246;-60
2023/04/20 08:15:49;;;;;;;;;21.00;20.00;;;;;20.13;41.86;99015.25;5969446;29;96486;-60
2023/04/20 08:18:53;;;;;;;;;21.20;20.20;;;;;20.13;41.51;99005.13;5954038;29;96862;-59
2023/04/20 08:21:57;;;;;;;;;26.50;24.75;;;;;20.14;40.85;99006.75;5969522;29;96424;-60
2023/04/20 08:25:01;;;;;;;;;20.60;19.00;;;;;20.10;41.12;99008.41;5953030;29;96250;-60
2023/04/20 08:28:06;;;;;;;;;25.60;22.40;;;;;20.00;41.11;99010.38;5970307;29;96314;-60
2023/04/20 08:31:14;;;;;;;;;21.80;20.80;;;;;19.85;41.59;99008.50;5971030;29;96285;-61
2023/04/20 08:34:19;;;;;;;;;24.50;21.00;;;;;19.74;41.75;99015.13;5956063;29;96653;-61
2023/04/20 08:37:24;;;;;;;;;29.00;24.00;;;;;19.67;42.14;99009.94;5971735;29;96395;-60
2023/04/20 08:40:28;;;;;;;;;23.60;22.00;;;;;19.62;42.30;99015.41;5972219;29;96397;-60
2023/04/20 08:43:32;;;;;;;;;25.60;23.60;;;;;19.58;42.10;99016.25;5955213;29;96690;-61
2023/04/20 08:46:36;;;;;;;;;21.00;19.50;;;;;19.64;42.68;99002.31;5971552;29;96365;-60
2023/04/20 08:49:44;;;;;;;;;22.00;20.50;;;;;19.94;42.76;99015.03;5980810;29;96367;-63
2023/04/20 08:52:47;;;;;;;;;25.00;23.00;;;;;20.10;41.69;99018.53;5965861;29;96428;-63
2023/04/20 08:55:50;;;;;;;;;24.00;22.00;;;;;20.12;41.73;99010.88;5981612;29;96372;-63
2023/04/20 08:58:57;;;;;;;;;26.00;23.00;;;;;20.22;41.78;99008.91;5981648;29;96192;-63
2023/04/20 09:02:10;;;;;;;;;29.50;27.50;;;;;20.17;41.45;99014.41;5982058;29;96557;-63
2023/04/20 09:05:15;;;;;;;;;26.40;24.60;;;;;20.07;41.10;99014.44;5982104;29;96331;-63
2023/04/20 09:08:19;;;;;;;;;26.00;23.60;;;;;20.11;41.71;99012.78;5965888;29;98639;-63
2023/04/20 09:11:23;;;;;;;;;28.00;25.25;;;;;20.28;41.20;99013.25;5981771;29;96218;-63
2023/04/20 09:14:26;;;;;;;;;28.25;24.50;;;;;20.53;41.22;99017.78;5965791;29;96291;-63
2023/04/20 09:17:32;;;;;;;;;27.00;25.00;;;;;20.36;39.58;99014.63;5965915;29;96272;-64
2023/04/20 09:20:37;;;;;;;;;25.00;23.00;;;;;20.20;39.92;99018.50;5980972;29;96316;-64
2023/04/20 09:23:40;;;;;;;;;24.40;22.60;;;;;20.35;41.06;99014.88;5965639;29;96355;-63
2023/04/20 09:26:44;;;;;;;;;24.60;24.60;;;;;20.56;40.44;99030.13;5965375;29;98798;-63
2023/04/20 09:37:25;;;;;;;;;21.00;18.00;;;;;20.99;37.96;99014.72;6705602;23;99788;-63
2023/04/20 09:40:29;;;;;;;;;21.60;20.00;;;;;20.76;39.42;99016.28;6027308;28;96268;-63
2023/04/20 09:43:34;;;;;;;;;17.40;16.00;;;;;20.84;40.06;99015.66;6011579;28;96335;-63
2023/04/20 09:46:39;;;;;;;;;19.00;17.60;;;;;20.58;39.25;99025.16;6011480;28;96379;-63
2023/04/20 09:49:44;;;;;;;;;19.60;18.60;;;;;20.40;39.75;99010.22;6027277;28;96336;-63
2023/04/20 09:52:50;;;;;;;;;24.40;22.00;;;;;20.53;40.02;99019.69;6011313;28;97009;-63
2023/04/20 09:55:53;;;;;;;;;24.00;21.00;;;;;20.66;40.30;99008.13;6025996;28;96937;-63
2023/04/20 09:58:57;;;;;;;;;18.50;18.00;;;;;20.91;39.89;99007.13;6025066;28;96132;-62
2023/04/20 10:02:01;;;;;;;;;17.60;17.20;;;;;21.16;40.70;99006.94;6024928;28;96368;-63
2023/04/20 10:05:06;;;;;;;;;21.00;19.00;;;;;21.53;40.03;99004.41;5993881;28;97626;-62
2023/04/20 10:08:11;;;;;;;;;20.00;19.25;;;;;21.78;39.32;99000.56;6008260;29;96690;-63
2023/04/20 10:11:25;;;;;;;;;19.50;18.75;;;;;21.91;38.23;99001.78;6025423;28;96446;-62
2023/04/20 10:14:34;;;;;;;;;20.60;19.00;;;;;21.74;38.36;98985.78;6023979;28;96523;-63
2023/04/20 10:17:38;;;;;;;;;18.80;18.00;;;;;21.66;38.03;98997.38;6008935;29;96797;-62
2023/04/20 10:20:41;;;;;;;;;19.00;19.00;;;;;21.50;38.62;99001.41;6007989;29;96343;-62
2023/04/20 10:23:50;;;;;;;;;18.40;17.00;;;;;21.24;39.84;98995.34;6023338;29;96364;-64
2023/04/20 10:26:54;;;;;;;;;22.00;20.20;;;;;21.04;39.75;98996.31;6025304;28;96479;-62
2023/04/20 10:29:57;;;;;;;;;21.00;19.40;;;;;21.00;40.15;98999.94;6559381;23;98892;-62
2023/04/20 10:33:05;;;;;;;;;18.60;17.60;;;;;20.89;40.02;98981.94;6017813;29;96681;-63
2023/04/20 10:36:09;;;;;;;;;19.00;17.50;;;;;21.06;40.16;98996.03;6017090;29;96277;-62
2023/04/20 10:39:18;;;;;;;;;15.60;14.60;;;;;21.10;38.77;98995.19;6018966;28;96317;-62
2023/04/20 10:42:21;;;;;;;;;17.00;16.00;;;;;21.30;39.11;98994.22;6022214;28;96273;-63
2023/04/20 10:45:34;;;;;;;;;16.00;15.00;;;;;21.41;39.07;98989.41;6007630;29;96313;-63
2023/04/20 10:48:37;;;;;;;;;17.00;14.00;;;;;21.50;39.03;98995.94;6027742;28;96266;-63
2023/04/20 10:51:46;;;;;;;;;14.50;13.50;;;;;21.35;37.35;98985.13;6030733;28;96891;-63
2023/04/20 10:54:51;;;;;;;;;16.00;14.00;;;;;21.43;37.55;98987.22;6014304;28;97030;-63
2023/04/20 10:57:54;;;;;;;;;16.33;14.67;;;;;21.46;38.23;98990.19;6029502;28;96319;-63
2023/04/20 11:00:59;;;;;;;;;13.25;13.00;;;;;21.44;37.59;98983.38;6011858;28;96310;-62
2023/04/20 11:04:03;;;;;;;;;16.00;15.00;;;;;21.43;37.00;98995.44;5994600;28;96653;-62
2023/04/20 11:07:07;;;;;;;;;13.40;13.00;;;;;21.26;37.39;98982.16;5995668;28;96573;-62
2023/04/20 11:10:12;;;;;;;;;16.00;14.00;;;;;21.35;38.08;98982.38;6006171;28;96679;-62
2023/04/20 11:13:27;;;;;;;;;21.20;18.20;;;;;21.62;38.57;98982.63;6006605;28;96286;-63
2023/04/20 11:16:31;;;;;;;;;28.00;26.33;;;;;22.01;38.37;98983.28;6006775;28;96820;-62
2023/04/20 11:19:52;;;;;;;;;17.67;17.00;;;;;22.37;37.11;98980.88;5990717;28;98341;-62
2023/04/20 11:22:57;;;;;;;;;17.00;16.50;;;;;22.67;36.20;98979.63;6006705;28;97136;-62
2023/04/20 11:26:02;;;;;;;;;19.00;18.00;;;;;22.71;35.41;98977.94;6015142;28;96070;-62
2023/04/20 11:29:06;;;;;;;;;19.00;17.20;;;;;22.88;35.36;98955.38;6207964;23;98727;-62
2023/04/20 11:32:10;;;;;;;;;20.60;17.00;;;;;23.23;34.93;98987.78;6028504;28;96694;-62
2023/04/20 11:35:14;;;;;;;;;21.00;18.75;;;;;23.59;34.89;98985.22;6026329;28;96881;-62
2023/04/20 11:38:27;;;;;;;;;16.00;15.00;;;;;23.91;34.82;98981.56;6013031;28;97355;-62
2023/04/20 11:41:32;;;;;;;;;15.60;15.60;;;;;24.38;33.24;98979.50;6018411;28;96361;-62
2023/04/20 11:44:35;;;;;;;;;14.80;14.40;;;;;24.67;31.85;98974.41;6027415;28;96451;-62
2023/04/20 11:47:40;;;;;;;;;14.40;13.40;;;;;24.83;33.01;98986.69;6027765;28;96338;-63
2023/04/20 11:50:43;;;;;;;;;16.00;14.00;;;;;25.33;32.95;98986.56;6026982;28;96615;-62
2023/04/20 11:53:46;;;;;;;;;15.25;14.25;;;;;25.70;32.25;98979.81;6010567;28;96327;-63
2023/04/20 11:56:51;;;;;;;;;15.00;14.00;;;;;26.08;31.03;98980.09;6011352;28;98467;-63
2023/04/20 11:59:54;;;;;;;;;14.00;13.20;;;;;26.24;29.92;98973.81;6008124;28;98682;-62
2023/04/20 12:02:58;;;;;;;;;15.00;14.00;;;;;26.39;31.01;98977.28;6027061;29;96316;-62
2023/04/20 12:06:02;;;;;;;;;9.00;9.00;;;;;26.14;29.53;98962.25;6027893;28;96379;-62
2023/04/20 12:09:06;;;;;;;;;9.20;8.20;;;;;26.36;29.34;98973.19;6027370;28;96417;-63
2023/04/20 12:12:10;;;;;;;;;13.00;12.00;;;;;26.21;30.31;98971.72;5989767;29;97243;-63
2023/04/20 12:15:14;;;;;;;;;9.00;8.00;;;;;26.00;29.86;98973.41;6027701;28;97762;-62
2023/04/20 12:18:18;;;;;;;;;8.00;8.00;;;;;25.02;30.05;98973.56;6016384;28;96273;-62
2023/04/20 12:21:21;;;;;;;;;9.25;9.25;;;;;24.80;31.63;98968.03;6028901;28;96254;-62
2023/04/20 12:24:25;;;;;;;;;11.20;11.20;;;;;24.70;31.92;98967.44;5993479;28;98466;-62
2023/04/20 12:27:29;;;;;;;;;8.00;8.00;;;;;24.53;31.88;98968.13;6005701;28;96274;-62
2023/04/20 12:30:34;;;;;;;;;7.60;7.00;;;;;24.28;31.70;98965.94;6017221;28;96336;-64
2023/04/20 12:33:37;;;;;;;;;8.00;7.00;;;;;24.20;32.32;98961.97;6005386;28;96759;-62
2023/04/20 12:36:41;;;;;;;;;11.40;11.40;;;;;24.25;32.90;98964.59;5989501;28;96568;-61
2023/04/20 12:39:44;;;;;;;;;7.80;7.80;;;;;24.52;32.56;98959.03;6014306;28;96192;-62
2023/04/20 12:42:49;;;;;;;;;8.60;8.00;;;;;24.75;31.75;98957.13;6001150;28;98414;-62
2023/04/20 12:45:53;;;;;;;;;6.75;6.75;;;;;25.07;30.47;98955.28;6024468;28;96407;-62
2023/04/20 12:48:56;;;;;;;;;11.20;9.60;;;;;25.03;31.09;98944.03;5987560;28;96655;-62
2023/04/20 12:51:59;;;;;;;;;9.00;8.00;;;;;25.07;29.75;98938.72;5975700;29;96396;-61
2023/04/20 12:55:03;;;;;;;;;9.00;8.00;;;;;24.92;30.84;98946.22;5974624;29;100347;-61
2023/04/20 12:58:08;;;;;;;;;8.25;8.00;;;;;24.65;30.65;98945.50;5979372;29;97338;-61
2023/04/20 13:01:11;;;;;;;;;9.00;9.00;;;;;24.56;30.95;98943.50;5995453;29;97041;-61
2023/04/20 13:04:15;;;;;;;;;8.80;8.20;;;;;24.35;31.91;98930.50;5996698;29;96704;-61
2023/04/20 13:07:19;;;;;;;;;10.50;10.00;;;;;24.31;31.80;98929.50;5997419;29;96680;-59
2023/04/20 13:10:22;;;;;;;;;9.00;8.40;;;;;23.97;31.51;98936.28;5997338;29;96923;-62
2023/04/20 13:13:27;;;;;;;;;11.00;11.00;;;;;23.58;33.17;98912.03;5996617;29;96484;-60
2023/04/20 13:16:30;;;;;;;;;10.50;10.00;;;;;22.88;34.90;98927.88;5987267;29;96379;-62
2023/04/20 13:19:34;;;;;;;;;14.00;12.00;;;;;22.18;35.85;98922.38;5979001;29;97608;-60
2023/04/20 13:22:38;;;;;;;;;10.00;9.00;;;;;22.14;35.96;98923.28;5963044;29;96592;-60
2023/04/20 13:25:59;;;;;;;;;11.00;9.60;;;;;22.32;35.78;98933.44;5983784;29;96306;-60
2023/04/20 13:29:04;;;;;;;;;11.00;9.60;;;;;22.40;36.16;98930.84;5978685;29;96499;-62
2023/04/20 13:32:07;;;;;;;;;10.60;10.60;;;;;22.52;36.43;98921.31;5987770;29;96317;-60
2023/04/20 13:35:13;;;;;;;;;13.25;12.25;;;;;22.56;36.34;98925.09;5994021;29;96685;-60
2023/04/20 13:38:16;;;;;;;;;11.00;11.00;;;;;22.54;36.20;98928.13;5971083;29;98683;-60
2023/04/20 13:41:20;;;;;;;;;12.00;11.80;;;;;22.53;36.50;98912.75;5992227;29;96625;-60
2023/04/20 13:44:25;;;;;;;;;10.60;10.00;;;;;22.55;36.15;98921.53;5996452;29;96371;-60
2023/04/20 13:47:29;;;;;;;;;11.40;10.40;;;;;22.75;35.58;98920.44;5979282;29;96706;-60
2023/04/20 13:50:32;;;;;;;;;9.00;9.00;;;;;23.13;34.84;98918.38;5995167;29;96406;-60
2023/04/20 13:53:36;;;;;;;;;11.60;11.00;;;;;23.57;35.43;98915.91;5978761;29;97028;-60
2023/04/20 13:56:39;;;;;;;;;9.00;9.00;;;;;23.51;33.02;98919.06;5995733;29;96421;-60
2023/04/20 13:59:44;;;;;;;;;8.00;7.80;;;;;23.39;33.09;98910.47;5995693;29;96679;-60
2023/04/20 14:02:47;;;;;;;;;8.00;7.00;;;;;23.29;34.73;98911.47;5995874;29;96369;-60
2023/04/20 14:05:50;;;;;;;;;8.20;7.80;;;;;23.36;34.34;98913.84;5994854;29;96437;-60
2023/04/20 14:08:54;;;;;;;;;10.50;10.00;;;;;23.39;33.76;98910.47;5994553;29;96317;-60
2023/04/20 14:11:58;;;;;;;;;8.50;7.50;;;;;23.47;34.06;98902.34;5995054;29;97064;-62
2023/04/20 14:15:03;;;;;;;;;7.60;7.20;;;;;23.96;33.16;98911.78;5996621;29;96347;-62
2023/04/20 14:18:06;;;;;;;;;10.25;8.00;;;;;24.22;32.48;98918.41;5993637;29;96669;-62
2023/04/20 14:21:09;;;;;;;;;7.00;7.00;;;;;24.04;32.42;98903.59;5996189;29;96359;-62